Abingdon, Maryland
Current Conditions -  °F | °C
As of 6:56 AM on Thursday 18 Dec 2014 (Local Time) from KAPG Reporting Station
Broken Clouds Broken Clouds  
Wind Chill: 30°   Ceiling: 5000
Heat Index: 37°   Visibility: 7mi
Dew Point: 23°   Wind: 12mph
Humidity: 56%   Direction: 330°NNW
Pressure: 30.1"   Gusts: 23mph
Location:  39.46°N, 76.28°W
Report Text: KAPG 181156Z 33010G20KT 7SM BKN050 03/M05 A3010
Loading
Personal Weather Stations






























Interactive Weather Map New forecast layout! Learn more

10-Day Weather Forecast

Advertisements
Track Severe Weather on mobile